Latest Weather Observations for Parkes Airport

IDN60801

Issued at 11:05 pm EST Wednesday 17 September 2014 (issued every 30 minutes, with the page automatically refreshed every 10 minutes)

About weather observations | Map of weather stations | Latest weather observations for NSW | Other Formats
Station Details ID: 065068 Name: PARKES AIRPORT AWS Lat: -33.13 Lon: 148.24 Height: 323.3 m
Data from the previous 72 hours. | See also: Recent months at Parkes Airport
Date/Time
EST
Temp
°C
App
Temp
°C
Dew
Point
Rel
Hum
%
Delta-T
°C
Wind Press
QNH
hPa
Press
MSL
hPa
Rain
since 9 am
mm
Dir
 
Spd
km/h
Gust
km/h
Spd
kts
Gust
kts
17/11:00pm 3.4 1.6 1.0 84 0.9 SSW 0 0 0 0 1019.2 - 0.0
17/10:30pm 4.4 2.6 1.1 79 1.3 SSW 0 0 0 0 1019.2 - 0.0
17/10:00pm 5.1 3.4 1.6 78 1.4 CALM 0 0 0 0 1019.1 - 0.0
17/09:30pm 6.2 3.4 2.3 76 1.6 SSW 6 7 3 4 1018.9 - 0.0
17/09:00pm 6.4 3.4 2.1 74 1.8 SSW 7 9 4 5 1018.6 1018.4 0.0
17/08:30pm 7.0 3.7 2.3 72 2.0 S 9 9 5 5 1018.2 - 0.0
17/08:00pm 7.9 5.1 3.0 71 2.1 SSW 7 9 4 5 1017.9 - 0.0
17/07:30pm 8.2 5.4 2.9 69 2.3 SSW 7 9 4 5 1017.6 - 0.0
17/07:00pm 9.9 7.1 3.2 63 3.0 SSW 7 9 4 5 1017.0 - 0.0
17/06:30pm 11.5 7.4 2.5 54 4.0 SW 13 20 7 11 1016.5 - 0.0
17/06:00pm 13.7 8.6 2.9 48 4.9 WSW 19 26 10 14 1016.0 1015.8 0.0
17/05:30pm 15.1 10.0 3.0 44 5.6 WSW 19 28 10 15 1015.7 - 0.0
17/05:00pm 15.3 10.2 2.8 43 5.7 WSW 19 28 10 15 1015.6 - 0.0
17/04:30pm 16.6 11.2 2.6 39 6.5 WSW 20 26 11 14 1015.2 - 0.0
17/04:00pm 16.4 10.2 2.1 38 6.5 WSW 24 35 13 19 1015.0 - 0.0
17/03:30pm 16.0 10.6 2.4 40 6.2 WSW 20 33 11 18 1014.8 - 0.0
17/03:00pm 16.8 9.3 1.3 35 7.0 SW 30 37 16 20 1014.6 1014.4 0.0
17/02:30pm 17.8 11.8 3.3 38 6.8 WSW 24 35 13 19 1014.5 - 0.0
17/02:00pm 17.6 11.9 2.8 37 6.9 WSW 22 33 12 18 1014.6 - 0.0
17/01:30pm 17.4 12.2 3.3 39 6.6 W 20 28 11 15 1014.9 - 0.0
17/01:00pm 17.0 11.2 2.2 37 6.8 W 22 32 12 17 1015.1 - 0.0
17/12:30pm 15.8 10.2 3.6 44 5.7 W 22 32 12 17 1015.6 - 0.0
17/12:00pm 15.6 10.2 4.3 47 5.3 W 22 30 12 16 1015.8 1015.6 0.0
17/11:30am 14.8 8.2 4.2 49 5.0 SW 28 37 15 20 1016.2 - 0.0
17/11:00am 15.4 9.9 5.9 53 4.6 SW 24 37 13 20 1016.4 - 0.0
17/10:30am 14.9 11.5 7.7 62 3.6 SW 15 22 8 12 1016.5 - 0.0
17/10:00am 15.0 12.0 7.5 61 3.8 SW 13 26 7 14 1016.6 - 0.0
17/09:30am 13.2 12.0 8.1 71 2.6 WSW 4 7 2 4 1016.3 - 0.0
17/09:00am 12.2 11.5 8.7 79 1.8 NNW 2 6 1 3 1016.4 1016.2 0.0
17/08:30am 10.8 10.6 8.9 88 1.0 CALM 0 0 0 0 1016.2 - 0.0
17/08:00am 9.5 8.6 7.9 90 0.8 NNE 2 7 1 4 1016.2 - 0.0
17/07:30am 8.4 6.5 7.6 95 0.4 NE 7 7 4 4 1016.0 - 0.0
17/07:00am 7.2 5.3 6.8 97 0.2 N 6 7 3 4 1016.2 - 0.0
17/06:30am 6.4 4.1 5.8 96 0.3 N 7 9 4 5 1015.8 - 0.0
17/06:00am 6.4 4.1 5.8 96 0.3 NNE 7 9 4 5 1015.5 1015.3 0.0
17/05:30am 6.5 4.8 5.9 96 0.3 NNE 4 7 2 4 1015.6 - 0.0
17/05:00am 6.3 4.0 5.9 97 0.2 ENE 7 9 4 5 1015.2 - 0.0
17/04:30am 6.0 3.7 5.6 97 0.2 NNE 7 9 4 5 1015.1 - 0.0
17/04:00am 5.8 3.1 5.4 97 0.2 E 9 11 5 6 1014.8 - 0.0
17/03:30am 5.1 2.2 4.7 97 0.2 N 9 9 5 5 1014.8 - 0.0
17/03:00am 4.4 1.7 3.7 95 0.3 E 7 9 4 5 1014.6 1014.4 0.0
17/02:30am 5.0 2.4 4.0 93 0.4 E 7 9 4 5 1014.6 - 0.0
17/02:00am 5.5 2.2 4.3 92 0.5 E 11 13 6 7 1014.5 - 0.0
17/01:30am 6.9 4.7 6.3 96 0.3 NE 7 9 4 5 1015.0 - 0.0
17/01:00am 5.3 2.4 4.7 96 0.3 NE 9 11 5 6 1015.0 - 0.0
17/12:30am 5.1 1.7 4.2 94 0.4 ENE 11 13 6 7 1014.8 - 0.0
17/12:00am 5.9 3.1 5.0 94 0.4 E 9 11 5 6 1014.6 1014.4 0.0
 
Date/Time
EST
Temp
°C
App
Temp
°C
Dew
Point
Rel
Hum
%
Delta-T
°C
Wind Press
QNH
hPa
Press
MSL
hPa
Rain
since 9 am
mm
Dir
 
Spd
km/h
Gust
km/h
Spd
kts
Gust
kts
16/11:30pm 6.3 3.9 5.3 93 0.4 ENE 7 11 4 6 1014.6 - 0.0
16/11:00pm 7.1 4.1 6.0 93 0.5 E 11 13 6 7 1014.6 - 0.0
16/10:30pm 7.5 5.4 6.8 95 0.3 ENE 7 9 4 5 1014.7 - 0.0
16/10:00pm 6.6 3.9 5.4 92 0.5 E 9 11 5 6 1014.7 - 0.0
16/09:30pm 7.6 6.7 5.9 89 0.8 CALM 0 0 0 0 1014.7 - 0.0
16/09:00pm 8.0 6.5 6.6 91 0.7 WSW 4 11 2 6 1014.7 1014.5 0.0
16/08:30pm 9.4 8.2 6.5 82 1.4 W 2 9 1 5 1014.5 - 0.0
16/08:00pm 10.6 7.8 7.1 79 1.7 W 11 15 6 8 1014.4 - 0.0
16/07:30pm 11.8 8.8 7.7 76 2.0 W 13 20 7 11 1014.4 - 0.0
16/07:00pm 12.4 9.4 7.7 73 2.3 WSW 13 19 7 10 1014.0 - 0.0
16/06:30pm 13.1 8.7 7.5 69 2.8 WSW 20 26 11 14 1013.7 - 0.0
16/06:00pm 14.4 9.2 7.2 62 3.6 W 24 35 13 19 1013.2 1013.0 0.0
16/05:30pm 14.5 10.3 7.3 62 3.6 W 19 24 10 13 1012.7 - 0.0
16/05:00pm 15.5 11.4 7.8 60 3.9 W 19 30 10 16 1012.3 - 0.0
16/04:30pm 15.8 10.7 7.8 59 4.1 W 24 37 13 20 1012.0 - 0.0
16/04:00pm 15.4 9.5 7.4 59 4.0 W 28 39 15 21 1011.9 - 0.0
16/03:30pm 16.3 12.2 8.5 60 4.0 WSW 20 32 11 17 1011.6 - 0.0
16/03:00pm 16.1 12.4 9.5 65 3.5 W 19 26 10 14 1011.5 1011.3 0.0
16/02:30pm 13.6 9.1 8.4 71 2.6 W 22 35 12 19 1011.7 - 0.0
16/02:00pm 15.5 10.4 7.5 59 4.0 W 24 33 13 18 1011.5 - 0.0
16/01:30pm 17.0 12.3 9.2 60 4.1 W 24 35 13 19 1011.4 - 0.0
16/01:00pm 17.3 12.1 9.0 58 4.4 W 26 33 14 18 1011.4 - 0.0
16/12:30pm 15.9 11.2 9.3 65 3.5 WSW 24 33 13 18 1011.5 - 0.0
16/12:00pm 15.9 11.3 9.8 67 3.2 W 24 32 13 17 1011.8 1011.6 0.0
16/11:30am 16.1 12.4 10.2 68 3.2 W 20 28 11 15 1012.1 - 0.0
16/11:00am 15.3 11.9 9.2 67 3.2 W 17 24 9 13 1012.3 - 0.0
16/10:30am 14.9 11.5 9.1 68 3.0 W 17 24 9 13 1012.5 - 0.0
16/10:00am 15.2 11.7 8.7 65 3.4 W 17 24 9 13 1012.5 - 0.0
16/09:30am 15.3 11.8 8.8 65 3.4 WNW 17 24 9 13 1012.7 - 0.0
16/09:00am 14.3 10.1 8.3 67 3.1 W 20 30 11 16 1012.8 1012.6 0.0
16/08:30am 13.3 10.0 8.2 71 2.6 W 15 26 8 14 1012.6 - 0.0
16/08:00am 12.9 9.7 6.9 67 2.9 W 13 20 7 11 1012.3 - 0.0
16/07:30am 12.5 11.4 7.0 69 2.7 N 2 7 1 4 1011.9 - 0.0
16/07:00am 10.2 7.7 6.7 79 1.7 ENE 9 9 5 5 1011.6 - 0.0
16/06:30am 7.9 5.4 5.0 82 1.3 ENE 7 9 4 5 1011.4 - 0.0
16/06:00am 7.5 4.9 4.1 79 1.5 NNE 7 9 4 5 1011.2 1010.9 0.0
16/05:30am 8.0 5.4 4.4 78 1.6 NNE 7 9 4 5 1010.7 - 0.0
16/05:00am 7.8 4.9 4.4 79 1.5 NNE 9 11 5 6 1010.6 - 0.0
16/04:30am 9.5 6.2 4.7 72 2.2 N 11 13 6 7 1010.4 - 0.0
16/04:00am 11.1 8.3 5.2 67 2.7 N 9 11 5 6 1010.1 - 0.0
16/03:30am 10.9 8.4 5.0 67 2.7 N 7 9 4 5 1009.8 - 0.0
16/03:00am 12.0 8.4 5.0 62 3.3 N 13 13 7 7 1009.5 1009.3 0.0
16/02:30am 13.3 8.9 5.0 57 3.9 N 17 20 9 11 1009.4 - 0.0
16/02:00am 15.8 11.7 4.5 47 5.4 NNE 15 22 8 12 1009.0 - 0.0
16/01:30am 16.9 11.8 4.3 43 6.0 NE 20 28 11 15 1009.0 - 0.0
16/01:00am 17.1 12.0 4.1 42 6.2 NE 20 30 11 16 1009.2 - 0.0
16/12:30am 18.6 12.6 3.3 36 7.3 NE 24 35 13 19 1009.9 - 0.0
16/12:00am 18.2 11.9 3.7 38 6.9 NE 26 33 14 18 1010.0 1009.8 0.0
 
Date/Time
EST
Temp
°C
App
Temp
°C
Dew
Point
Rel
Hum
%
Delta-T
°C
Wind Press
QNH
hPa
Press
MSL
hPa
Rain
since 9 am
mm
Dir
 
Spd
km/h
Gust
km/h
Spd
kts
Gust
kts
15/11:30pm 17.8 12.2 3.7 39 6.7 NE 22 32 12 17 1010.1 - 0.0
15/11:00pm 17.2 12.4 4.5 43 6.1 NE 19 24 10 13 1010.7 - 0.0
15/10:30pm 17.3 12.5 4.9 44 6.0 NE 19 24 10 13 1011.1 - 0.0
15/10:00pm 16.1 12.3 6.0 51 5.0 NE 15 19 8 10 1011.5 - 0.0
15/09:30pm 14.7 11.2 5.5 54 4.4 NE 13 17 7 9 1011.9 - 0.0
15/09:00pm 17.9 13.1 4.8 42 6.4 ENE 19 28 10 15 1012.2 1012.0 0.0
15/08:47pm 18.7 13.4 5.2 41 6.7 E 22 32 12 17 1012.0 - 0.0
15/08:30pm 13.7 11.2 8.1 69 2.8 NE 11 17 6 9 1012.6 - 0.0
15/08:00pm 16.3 13.0 6.4 52 4.9 E 13 15 7 8 1012.5 - 0.0
15/07:30pm 16.8 13.2 6.9 52 5.0 E 15 17 8 9 1012.5 - 0.0
15/07:00pm 16.0 12.6 7.5 57 4.3 E 15 17 8 9 1012.9 - 0.0
15/06:30pm 15.9 13.5 8.6 62 3.8 ENE 11 13 6 7 1013.0 - 0.0
15/06:00pm 17.4 17.0 9.8 61 4.1 NNE 2 7 1 4 1013.3 1013.1 0.0
15/05:30pm 18.8 17.6 9.6 55 4.9 NNE 6 7 3 4 1013.4 - 0.0
15/05:00pm 19.7 18.3 9.6 52 5.5 NNE 7 11 4 6 1013.3 - 0.0
15/04:30pm 19.9 18.3 8.9 49 5.9 NNE 7 9 4 5 1013.0 - 0.0
15/04:00pm 21.4 18.2 6.9 39 7.5 NE 13 19 7 10 1012.7 - 0.0
15/03:30pm 23.0 19.5 3.5 28 9.6 ENE 11 17 6 9 1012.8 - 0.0
15/03:00pm 22.9 19.4 3.4 28 9.6 NE 11 15 6 8 1013.3 1013.1 0.0
15/02:30pm 22.9 20.0 4.4 30 9.2 NNE 9 15 5 8 1013.7 - 0.0
15/02:00pm 21.7 17.3 4.7 33 8.5 NNE 17 24 9 13 1013.9 - 0.0
15/01:30pm 22.5 18.0 4.1 30 9.1 N 17 24 9 13 1014.2 - 0.0
15/01:00pm 22.3 18.1 3.9 30 9.1 N 15 20 8 11 1014.5 - 0.0
15/12:30pm 22.0 17.4 3.6 30 9.0 N 17 22 9 12 1015.1 - 0.0
15/12:00pm 21.8 17.5 3.5 30 8.9 N 15 20 8 11 1015.5 1015.3 0.0
15/11:30am 21.6 17.8 5.9 36 8.0 NNE 15 20 8 11 1016.2 - 0.0
15/11:00am 21.4 18.1 6.5 38 7.7 N 13 24 7 13 1016.5 - 0.0
15/10:30am 20.8 17.3 7.1 41 7.1 NNE 15 19 8 10 1017.0 - 0.0
15/10:00am 19.8 16.2 6.9 43 6.6 N 15 20 8 11 1017.5 - 0.0
15/09:30am 19.1 16.2 6.6 44 6.4 N 11 17 6 9 1017.8 - 0.0
15/09:00am 16.8 15.6 9.5 62 3.9 N 6 11 3 6 1017.8 1017.6 0.0
15/08:30am 14.0 12.6 9.4 74 2.4 N 7 11 4 6 1017.9 - 0.0
15/08:00am 11.7 9.9 8.0 78 1.8 N 7 9 4 5 1018.1 - 0.0
15/07:30am 9.3 7.0 7.3 87 1.0 NNE 9 13 5 7 1018.1 - 0.0
15/07:00am 5.3 1.7 4.9 97 0.2 NNE 13 13 7 7 1017.9 - 0.0
15/06:30am 2.5 -0.9 1.8 95 0.3 NNE 9 11 5 6 1017.7 - 0.0
15/06:00am 2.8 -0.6 2.1 95 0.3 NE 9 11 5 6 1017.8 1017.6 0.0
15/05:30am 2.8 -0.6 2.1 95 0.3 NE 9 11 5 6 1017.8 - 0.0
15/05:00am 2.5 -1.3 1.8 95 0.3 NE 11 13 6 7 1017.6 - 0.0
15/04:30am 2.6 -0.8 1.7 94 0.4 NNE 9 11 5 6 1017.5 - 0.0
15/04:00am 2.5 -1.0 1.3 92 0.5 NNE 9 11 5 6 1017.5 - 0.0
15/03:30am 3.6 0.4 2.9 95 0.3 NNE 9 11 5 6 1017.5 - 0.0
15/03:00am 3.1 -0.2 2.2 94 0.4 NNE 9 11 5 6 1017.6 1017.4 0.0
15/02:30am 2.2 -1.3 1.2 93 0.4 N 9 11 5 6 1017.9 - 0.0
15/02:00am 2.4 -1.1 1.2 92 0.5 N 9 11 5 6 1018.1 - 0.0
15/01:30am 3.6 0.7 2.6 93 0.4 NNE 7 9 4 5 1018.3 - 0.0
15/01:00am 3.0 -0.4 2.0 93 0.4 NNE 9 11 5 6 1018.5 - 0.0
15/12:30am 4.4 1.6 3.4 93 0.4 NNE 7 9 4 5 1018.6 - 0.0
15/12:00am 3.7 0.4 2.5 92 0.5 N 9 11 5 6 1018.9 1018.7 0.0
 
Date/Time
EST
Temp
°C
App
Temp
°C
Dew
Point
Rel
Hum
%
Delta-T
°C
Wind Press
QNH
hPa
Press
MSL
hPa
Rain
since 9 am
mm
Dir
 
Spd
km/h
Gust
km/h
Spd
kts
Gust
kts
14/11:30pm 5.2 1.7 3.5 89 0.7 ENE 11 13 6 7 1018.8 - 0.0

Other Formats:

Comma delimited format used in spreadsheet applications
http://www.bom.gov.au/fwo/IDN60801/IDN60801.95717.axf

JavaScript Object Notation format (JSON) in row-major order
http://www.bom.gov.au/fwo/IDN60801/IDN60801.95717.json